Time;durP1;ratioP1;P1;durP2;ratioP2;P2;SDS_P1;SDS_P2;PMS_P1;PMS_P2;Temp;Humidity;BMP_temperature;BMP_pressure;BME280_temperature;BME280_humidity;BME280_pressure;Samples;Min_cycle;Max_cycle;Signal;HPM_P1;HPM_P2
2022/11/08 00:01:37;;;;;;;8.90;0.82;;;12.50;99.90;;;;;;5036124;28;20191;-76
2022/11/08 00:04:06;;;;;;;6.63;0.80;;;12.50;99.90;;;;;;5037113;28;20060;-76
2022/11/08 00:14:45;;;;;;;10.88;0.90;;;12.30;99.90;;;;;;5036173;28;20059;-77
2022/11/08 00:17:13;;;;;;;6.03;0.75;;;12.20;99.90;;;;;;5034234;28;20029;-77
2022/11/08 00:19:39;;;;;;;8.45;1.00;;;12.10;99.90;;;;;;5034734;28;20021;-76
2022/11/08 00:22:04;;;;;;;9.95;1.25;;;12.10;99.90;;;;;;5033513;28;20035;-76
2022/11/08 00:24:30;;;;;;;7.85;0.82;;;12.00;99.90;;;;;;5038376;28;20017;-77
2022/11/08 00:26:55;;;;;;;4.10;0.85;;;12.00;99.90;;;;;;5035042;28;20850;-77
2022/11/08 00:29:21;;;;;;;7.60;0.93;;;11.90;99.90;;;;;;5036414;28;20096;-77
2022/11/08 00:31:46;;;;;;;7.57;0.82;;;11.90;99.90;;;;;;5033504;28;20043;-76
2022/11/08 00:34:12;;;;;;;6.63;0.88;;;11.90;99.90;;;;;;5034054;28;20546;-76
2022/11/08 00:36:37;;;;;;;12.80;0.93;;;11.80;99.90;;;;;;5037723;28;20037;-78
2022/11/08 00:39:03;;;;;;;7.90;0.93;;;11.80;99.90;;;;;;5034511;28;20071;-76
2022/11/08 00:41:28;;;;;;;8.38;0.70;;;11.80;99.90;;;;;;5036755;28;20033;-76
2022/11/08 00:43:54;;;;;;;5.80;0.85;;;11.70;99.90;;;;;;5035204;28;20033;-76
2022/11/08 00:46:19;;;;;;;12.70;0.90;;;11.70;99.90;;;;;;5034098;28;20434;-77
2022/11/08 00:48:45;;;;;;;10.27;1.45;;;11.70;99.90;;;;;;5035125;28;20044;-76
2022/11/08 00:51:11;;;;;;;10.10;1.00;;;11.70;99.90;;;;;;5039478;28;21353;-76
2022/11/08 00:53:37;;;;;;;8.68;1.45;;;11.60;99.90;;;;;;5034352;28;20404;-77
2022/11/08 00:56:09;;;;;;;5.63;0.90;;;11.60;99.90;;;;;;5033358;28;20025;-76
2022/11/08 00:58:35;;;;;;;11.13;0.95;;;11.50;99.90;;;;;;5035042;28;20597;-76
2022/11/08 01:01:07;;;;;;;10.55;0.80;;;11.50;99.90;;;;;;5033565;28;20116;-76
2022/11/08 01:03:33;;;;;;;7.10;1.10;;;11.50;99.90;;;;;;5038227;28;20025;-77
2022/11/08 01:06:04;;;;;;;8.43;0.90;;;11.40;99.90;;;;;;5033310;28;20086;-76
2022/11/08 01:08:30;;;;;;;7.07;1.67;;;11.40;99.90;;;;;;5037945;28;20038;-76
2022/11/08 01:10:55;;;;;;;8.82;0.90;;;11.40;99.90;;;;;;5034559;28;20072;-76
2022/11/08 01:13:21;;;;;;;10.60;0.80;;;11.40;99.90;;;;;;5037822;28;20489;-76
2022/11/08 01:15:47;;;;;;;6.55;1.17;;;11.40;99.90;;;;;;5034511;28;20556;-76
2022/11/08 01:18:14;;;;;;;7.78;1.23;;;11.40;99.90;;;;;;5039053;28;20086;-76
2022/11/08 01:20:41;;;;;;;11.15;1.50;;;11.30;99.90;;;;;;5042870;28;20362;-76
2022/11/08 01:23:08;;;;;;;8.10;1.13;;;11.30;99.90;;;;;;5038362;28;20017;-75
2022/11/08 01:25:39;;;;;;;7.97;1.27;;;11.30;99.90;;;;;;5044709;28;20085;-76
2022/11/08 01:28:05;;;;;;;7.43;1.08;;;11.30;99.90;;;;;;5039232;28;20115;-76
2022/11/08 01:30:34;;;;;;;8.93;1.15;;;11.30;99.90;;;;;;5041492;28;20063;-76
2022/11/08 01:32:59;;;;;;;7.47;1.00;;;11.30;99.90;;;;;;5022596;28;20032;-76
2022/11/08 01:35:25;;;;;;;7.18;1.10;;;11.30;99.90;;;;;;5037522;28;20037;-76
2022/11/08 01:37:51;;;;;;;9.65;1.40;;;11.30;99.90;;;;;;5038373;28;20396;-76
2022/11/08 01:40:16;;;;;;;10.77;2.10;;;11.30;99.90;;;;;;5037358;28;20037;-76
2022/11/08 01:42:42;;;;;;;5.85;0.82;;;11.30;99.90;;;;;;5039748;28;20053;-76
2022/11/08 01:45:10;;;;;;;11.70;1.58;;;11.30;99.90;;;;;;5040692;28;20032;-76
2022/11/08 01:47:36;;;;;;;11.52;1.42;;;11.20;99.90;;;;;;5050225;28;20067;-76
2022/11/08 01:50:14;;;;;;;7.35;1.25;;;11.30;99.90;;;;;;5049171;28;20025;-76
2022/11/08 01:52:47;;;;;;;6.43;1.20;;;11.20;99.90;;;;;;5039699;28;20060;-76
2022/11/08 01:55:18;;;;;;;7.28;1.75;;;11.20;99.90;;;;;;5044588;28;20017;-76
2022/11/08 01:57:56;;;;;;;6.03;1.40;;;11.20;99.90;;;;;;5053231;28;20025;-76
2022/11/08 02:00:22;;;;;;;8.00;1.75;;;11.20;99.90;;;;;;5035461;28;20102;-76
2022/11/08 02:02:59;;;;;;;8.23;1.15;;;11.20;99.90;;;;;;5055650;28;20021;-76
2022/11/08 02:05:27;;;;;;;10.15;1.30;;;11.20;99.90;;;;;;5045914;28;20533;-76
2022/11/08 02:08:37;;;;;;;8.43;1.40;;;11.20;99.90;;;;;;5047557;28;20021;-77
2022/11/08 02:11:03;;;;;;;8.10;1.58;;;11.20;99.90;;;;;;5031326;28;20037;-77
2022/11/08 02:13:31;;;;;;;7.22;1.10;;;11.20;99.90;;;;;;5041762;28;20186;-76
2022/11/08 02:15:57;;;;;;;8.93;1.60;;;11.20;99.90;;;;;;5024928;28;20096;-77
2022/11/08 02:18:30;;;;;;;9.43;1.10;;;11.20;99.90;;;;;;5047183;28;20033;-77
2022/11/08 02:21:01;;;;;;;6.93;1.17;;;11.20;99.90;;;;;;5055204;28;20109;-76
2022/11/08 02:23:51;;;;;;;4.97;0.90;;;11.20;99.90;;;;;;5049583;28;20029;-76
2022/11/08 02:26:19;;;;;;;10.25;1.67;;;11.20;99.90;;;;;;5050110;28;20090;-76
2022/11/08 02:28:47;;;;;;;8.02;1.10;;;11.20;99.90;;;;;;5051047;28;20107;-76
2022/11/08 02:31:15;;;;;;;5.38;1.25;;;11.20;99.90;;;;;;5015205;28;20489;-77
2022/11/08 02:33:41;;;;;;;8.90;1.40;;;11.30;99.90;;;;;;5040244;28;20033;-76
2022/11/08 02:36:08;;;;;;;8.68;1.35;;;11.20;99.90;;;;;;5050939;28;20028;-76
2022/11/08 02:38:38;;;;;;;8.25;1.33;;;11.30;99.90;;;;;;5043797;28;20031;-76
2022/11/08 02:41:04;;;;;;;5.18;1.27;;;11.30;99.90;;;;;;5043088;28;20035;-76
2022/11/08 02:43:30;;;;;;;6.20;1.30;;;11.30;99.90;;;;;;5049848;28;20480;-76
2022/11/08 02:45:57;;;;;;;7.72;1.10;;;11.30;99.90;;;;;;5036167;28;20021;-76
2022/11/08 02:48:23;;;;;;;10.73;1.40;;;11.30;99.90;;;;;;5042384;28;20516;-77
2022/11/08 02:50:49;;;;;;;6.63;1.17;;;11.30;99.90;;;;;;5050446;28;20033;-77
2022/11/08 02:53:14;;;;;;;5.30;1.00;;;11.30;99.90;;;;;;5031975;28;20041;-76
2022/11/08 02:55:40;;;;;;;3.88;1.10;;;11.30;99.90;;;;;;5056385;28;20048;-77
2022/11/08 02:58:06;;;;;;;11.02;1.52;;;11.30;99.90;;;;;;5060295;28;20040;-77
2022/11/08 03:00:31;;;;;;;7.22;1.00;;;11.40;99.90;;;;;;5065788;28;20434;-76
2022/11/08 03:02:57;;;;;;;10.63;1.30;;;11.30;99.90;;;;;;5042294;28;20465;-77
2022/11/08 03:05:25;;;;;;;6.28;1.10;;;11.30;99.90;;;;;;5036985;28;20038;-76
2022/11/08 03:07:50;;;;;;;4.68;1.00;;;11.30;99.90;;;;;;5033584;28;20078;-77
2022/11/08 03:10:17;;;;;;;6.43;1.17;;;11.30;99.90;;;;;;5035511;28;20384;-77
2022/11/08 03:12:43;;;;;;;7.10;1.10;;;11.30;99.90;;;;;;5036029;28;20037;-77
2022/11/08 03:15:11;;;;;;;7.57;1.10;;;11.30;99.90;;;;;;5039132;28;20111;-77
2022/11/08 03:17:37;;;;;;;5.63;1.10;;;11.30;99.90;;;;;;5038594;28;20029;-76
2022/11/08 03:20:03;;;;;;;6.93;0.82;;;11.40;99.90;;;;;;5031351;28;20416;-76
2022/11/08 03:22:29;;;;;;;8.43;1.67;;;11.30;99.90;;;;;;5032895;28;20108;-76
2022/11/08 03:24:54;;;;;;;5.43;1.30;;;11.30;99.90;;;;;;5036865;28;20473;-77
2022/11/08 03:27:20;;;;;;;5.50;1.00;;;11.30;99.90;;;;;;5033793;28;20040;-77
2022/11/08 03:29:47;;;;;;;6.30;1.13;;;11.30;99.90;;;;;;5032713;28;20123;-76
2022/11/08 03:32:13;;;;;;;6.47;1.00;;;11.20;99.90;;;;;;5032496;28;20037;-76
2022/11/08 03:34:39;;;;;;;7.88;1.10;;;11.20;99.90;;;;;;5033551;28;20055;-76
2022/11/08 03:37:06;;;;;;;6.15;1.40;;;11.20;99.90;;;;;;5033730;28;20037;-76
2022/11/08 03:39:31;;;;;;;5.95;1.10;;;11.20;99.90;;;;;;5030409;28;20029;-76
2022/11/08 03:42:01;;;;;;;6.47;0.90;;;11.20;99.90;;;;;;5030118;28;20283;-76
2022/11/08 03:44:27;;;;;;;7.28;0.90;;;11.20;99.90;;;;;;5035105;28;20037;-77
2022/11/08 03:46:53;;;;;;;7.25;0.90;;;11.20;99.90;;;;;;5028193;28;20032;-75
2022/11/08 03:49:18;;;;;;;13.10;1.25;;;11.20;99.90;;;;;;5031256;28;20499;-74
2022/11/08 03:51:44;;;;;;;7.53;1.02;;;11.20;99.90;;;;;;5034258;28;20048;-75
2022/11/08 03:54:09;;;;;;;7.57;1.00;;;11.20;99.90;;;;;;5029300;28;20112;-75
2022/11/08 03:56:35;;;;;;;6.20;0.88;;;11.20;99.90;;;;;;5028660;28;20116;-74
2022/11/08 03:59:00;;;;;;;6.43;0.90;;;11.30;99.90;;;;;;5027651;28;20032;-75
2022/11/08 04:01:26;;;;;;;5.32;0.70;;;11.30;99.90;;;;;;5017102;28;21590;-74
2022/11/08 04:03:51;;;;;;;6.75;0.88;;;11.30;99.90;;;;;;5028334;28;20037;-74
2022/11/08 04:06:17;;;;;;;8.63;1.30;;;11.30;99.90;;;;;;5028871;28;20079;-74
2022/11/08 04:08:42;;;;;;;7.95;0.70;;;11.20;99.90;;;;;;5029065;28;20141;-75
2022/11/08 04:16:36;;;;;;;8.00;1.08;;;11.10;99.90;;;;;;5028575;28;20729;-75
2022/11/08 04:21:48;;;;;;;7.38;1.02;;;11.10;99.90;;;;;;5034827;28;20044;-74
2022/11/08 04:24:14;;;;;;;6.68;0.70;;;11.00;99.90;;;;;;5030099;28;20033;-75
2022/11/08 04:26:40;;;;;;;6.80;1.13;;;11.10;99.90;;;;;;5032998;28;20025;-75
2022/11/08 04:29:06;;;;;;;4.22;0.77;;;11.00;99.90;;;;;;5028875;28;21822;-75
2022/11/08 04:31:32;;;;;;;6.93;1.10;;;11.00;99.90;;;;;;5031394;28;20062;-76
2022/11/08 04:33:57;;;;;;;6.03;1.10;;;11.00;99.90;;;;;;5011743;28;20366;-75
2022/11/08 04:36:23;;;;;;;6.97;0.80;;;11.10;99.90;;;;;;5031786;28;20032;-75
2022/11/08 04:38:49;;;;;;;7.38;1.00;;;11.10;99.90;;;;;;5032811;28;20029;-74
2022/11/08 04:41:17;;;;;;;5.75;0.88;;;11.00;99.90;;;;;;5016470;28;21088;-75
2022/11/08 04:43:43;;;;;;;8.25;0.90;;;11.00;99.90;;;;;;5031033;28;20103;-75
2022/11/08 04:46:14;;;;;;;6.60;0.90;;;11.00;99.90;;;;;;5035508;28;20033;-75
2022/11/08 04:48:40;;;;;;;6.35;0.70;;;11.10;99.90;;;;;;5036023;28;20033;-75
2022/11/08 04:51:07;;;;;;;5.57;0.73;;;11.00;99.90;;;;;;5035581;28;20044;-75
2022/11/08 04:53:33;;;;;;;5.93;0.80;;;11.10;99.90;;;;;;5034116;28;20102;-75
2022/11/08 04:56:00;;;;;;;4.35;0.70;;;11.10;99.90;;;;;;5036318;28;20502;-75
2022/11/08 04:58:27;;;;;;;3.25;0.63;;;11.00;99.90;;;;;;5035808;28;20017;-75
2022/11/08 05:00:53;;;;;;;4.38;0.50;;;11.10;99.90;;;;;;5032552;28;20457;-75
2022/11/08 05:03:18;;;;;;;4.35;0.70;;;11.00;99.90;;;;;;5035056;28;20082;-75
2022/11/08 05:05:44;;;;;;;4.22;0.57;;;11.00;99.90;;;;;;5019727;28;20029;-75
2022/11/08 05:08:09;;;;;;;5.60;0.70;;;11.00;99.90;;;;;;5033341;28;20085;-75
2022/11/08 05:10:35;;;;;;;4.80;0.82;;;11.00;99.90;;;;;;5017029;28;20033;-76
2022/11/08 05:13:00;;;;;;;3.35;0.60;;;11.00;99.90;;;;;;5031671;28;20072;-75
2022/11/08 05:15:26;;;;;;;4.00;0.65;;;11.00;99.90;;;;;;5034047;28;20037;-75
2022/11/08 05:17:51;;;;;;;5.40;0.88;;;11.10;99.90;;;;;;5033683;28;20420;-76
2022/11/08 05:25:45;;;;;;;6.20;0.90;;;11.10;99.90;;;;;;5032633;28;20488;-75
2022/11/08 05:28:12;;;;;;;6.15;0.90;;;11.10;99.90;;;;;;5045204;28;20056;-76
2022/11/08 05:30:37;;;;;;;3.97;0.85;;;11.10;99.90;;;;;;5048242;28;20082;-75
2022/11/08 05:33:03;;;;;;;5.90;0.77;;;11.20;99.90;;;;;;5052033;28;20427;-75
2022/11/08 05:35:28;;;;;;;3.65;0.63;;;11.20;99.90;;;;;;5050079;28;20059;-75
2022/11/08 05:37:54;;;;;;;3.70;0.60;;;11.20;99.90;;;;;;5048780;28;20025;-75
2022/11/08 05:40:19;;;;;;;4.47;0.77;;;11.10;99.90;;;;;;5045098;28;20025;-75
2022/11/08 05:42:45;;;;;;;5.63;0.70;;;11.20;99.90;;;;;;5051920;28;20098;-76
2022/11/08 05:45:11;;;;;;;2.90;0.60;;;11.10;99.90;;;;;;5050039;28;20488;-76
2022/11/08 05:47:37;;;;;;;6.45;0.90;;;11.10;99.90;;;;;;5051194;28;20028;-76
2022/11/08 05:50:03;;;;;;;5.05;0.93;;;11.10;99.90;;;;;;5050464;28;20473;-76
2022/11/08 05:52:28;;;;;;;3.35;0.57;;;11.10;99.90;;;;;;5045508;28;20114;-76
2022/11/08 05:54:54;;;;;;;6.13;1.15;;;11.10;99.90;;;;;;5051407;28;20029;-76
2022/11/08 05:57:20;;;;;;;5.13;0.88;;;11.10;99.90;;;;;;5051990;28;20037;-76
2022/11/08 05:59:46;;;;;;;5.30;0.65;;;11.10;99.90;;;;;;5052660;28;20055;-76
2022/11/08 06:02:11;;;;;;;4.95;0.70;;;11.10;99.90;;;;;;5050782;28;20057;-76
2022/11/08 06:04:37;;;;;;;6.15;0.80;;;11.10;99.90;;;;;;5048631;28;20055;-76
2022/11/08 06:07:02;;;;;;;6.03;0.60;;;11.10;99.90;;;;;;5032453;28;20025;-76
2022/11/08 06:09:28;;;;;;;2.90;0.80;;;11.00;99.90;;;;;;5036790;28;20038;-75
2022/11/08 06:11:53;;;;;;;3.38;0.60;;;11.00;99.90;;;;;;5035623;28;20029;-75
2022/11/08 06:14:19;;;;;;;2.42;0.63;;;11.00;99.90;;;;;;5036251;28;20055;-75
2022/11/08 06:16:45;;;;;;;5.38;0.80;;;11.00;99.90;;;;;;5019260;28;20468;-75
2022/11/08 06:19:10;;;;;;;2.90;0.70;;;11.10;99.90;;;;;;5016701;28;20516;-75
2022/11/08 06:21:36;;;;;;;2.42;0.90;;;11.10;99.90;;;;;;5032986;28;20151;-76
2022/11/08 06:24:02;;;;;;;2.33;0.60;;;11.00;99.90;;;;;;5035028;28;20028;-75
2022/11/08 06:26:28;;;;;;;2.83;0.70;;;11.00;99.90;;;;;;5036369;28;20040;-75
2022/11/08 06:28:53;;;;;;;5.03;1.40;;;11.00;99.90;;;;;;5015065;28;20039;-74
2022/11/08 06:31:19;;;;;;;5.25;0.98;;;11.00;99.90;;;;;;5035312;28;20745;-74
2022/11/08 06:33:46;;;;;;;3.28;0.80;;;11.00;99.90;;;;;;5020608;28;20056;-75
2022/11/08 06:36:12;;;;;;;4.28;0.65;;;11.00;99.90;;;;;;5036020;28;20029;-75
2022/11/08 06:38:37;;;;;;;8.15;0.60;;;11.00;99.90;;;;;;5036118;28;20950;-75
2022/11/08 06:41:03;;;;;;;2.60;0.70;;;11.00;99.90;;;;;;5037700;28;20111;-74
2022/11/08 06:43:29;;;;;;;3.08;0.60;;;11.00;99.90;;;;;;5035744;28;20037;-75
2022/11/08 06:45:58;;;;;;;3.03;0.70;;;11.00;99.90;;;;;;5032732;28;20025;-75
2022/11/08 06:48:24;;;;;;;2.33;0.70;;;11.00;99.90;;;;;;5035888;28;20043;-75
2022/11/08 06:50:50;;;;;;;5.28;0.60;;;11.00;99.90;;;;;;5031389;28;20025;-75
2022/11/08 06:53:15;;;;;;;3.45;0.60;;;11.00;99.90;;;;;;5016230;28;20044;-75
2022/11/08 06:55:41;;;;;;;3.75;0.70;;;11.00;99.90;;;;;;5016954;28;20037;-75
2022/11/08 06:58:07;;;;;;;5.93;0.88;;;11.00;99.90;;;;;;5040015;28;20527;-75
2022/11/08 07:00:32;;;;;;;3.40;0.65;;;11.00;99.90;;;;;;5048707;28;20108;-75
2022/11/08 07:03:00;;;;;;;6.47;0.68;;;11.00;99.90;;;;;;5008764;28;20036;-76
2022/11/08 07:05:27;;;;;;;3.40;0.68;;;11.00;99.90;;;;;;5044420;28;20033;-75
2022/11/08 07:07:53;;;;;;;4.07;0.70;;;11.00;99.90;;;;;;5041045;28;20064;-75
2022/11/08 07:10:24;;;;;;;3.35;0.75;;;11.00;99.90;;;;;;5049555;28;20037;-75
2022/11/08 07:13:08;;;;;;;3.22;0.60;;;11.00;99.90;;;;;;5032280;28;20131;-76
2022/11/08 07:15:35;;;;;;;3.67;0.60;;;11.00;99.90;;;;;;5041727;28;20025;-75
2022/11/08 07:18:06;;;;;;;4.45;1.42;;;11.10;99.90;;;;;;5048889;28;20021;-75
2022/11/08 07:20:32;;;;;;;3.63;0.65;;;11.10;99.90;;;;;;5031138;28;20024;-74
2022/11/08 07:22:58;;;;;;;3.28;0.70;;;11.20;99.90;;;;;;5030446;28;20090;-76
2022/11/08 07:25:25;;;;;;;2.08;0.70;;;11.20;99.90;;;;;;5025039;28;20477;-76
2022/11/08 07:27:58;;;;;;;3.65;0.80;;;11.30;99.90;;;;;;5048701;28;20032;-76
2022/11/08 07:30:25;;;;;;;5.85;0.93;;;11.40;99.90;;;;;;5050677;28;20075;-76
2022/11/08 07:32:51;;;;;;;3.17;0.65;;;11.50;99.90;;;;;;5044556;28;20057;-76
2022/11/08 07:35:19;;;;;;;5.90;0.60;;;11.50;99.90;;;;;;5028062;28;20072;-76
2022/11/08 07:37:45;;;;;;;5.47;0.93;;;11.50;99.90;;;;;;5043459;28;20033;-77
2022/11/08 07:40:11;;;;;;;4.90;0.80;;;11.60;99.90;;;;;;5026364;28;20392;-76
2022/11/08 07:42:37;;;;;;;5.13;1.10;;;11.70;99.90;;;;;;5032828;28;20413;-76
2022/11/08 07:45:05;;;;;;;2.88;0.80;;;11.70;99.90;;;;;;5027917;28;20524;-76
2022/11/08 07:47:30;;;;;;;3.30;0.80;;;11.80;99.90;;;;;;5020810;28;20025;-76
2022/11/08 07:49:56;;;;;;;4.57;1.48;;;11.80;99.90;;;;;;5045837;28;20044;-76
2022/11/08 07:52:22;;;;;;;3.42;0.85;;;11.80;99.90;;;;;;5050775;28;20029;-76
2022/11/08 07:54:48;;;;;;;2.08;0.80;;;11.80;99.90;;;;;;5049501;28;20366;-76
2022/11/08 07:57:13;;;;;;;5.15;0.93;;;11.80;99.90;;;;;;5047708;28;20397;-77
2022/11/08 07:59:39;;;;;;;1.92;0.80;;;11.90;99.90;;;;;;5046133;28;20079;-76
2022/11/08 08:02:05;;;;;;;3.33;1.30;;;11.90;99.90;;;;;;5039050;28;20037;-76
2022/11/08 08:04:30;;;;;;;4.50;1.38;;;11.90;99.90;;;;;;5032025;28;20029;-76
2022/11/08 08:06:59;;;;;;;2.95;0.80;;;11.90;99.90;;;;;;5048635;28;20511;-77
2022/11/08 08:09:25;;;;;;;3.92;1.00;;;11.90;99.90;;;;;;5031134;28;20079;-76
2022/11/08 08:11:51;;;;;;;4.57;1.20;;;12.00;99.90;;;;;;5049522;28;20037;-76
2022/11/08 08:14:17;;;;;;;3.08;0.80;;;12.00;99.90;;;;;;5049165;28;20037;-76
2022/11/08 08:16:42;;;;;;;4.15;1.02;;;12.00;99.90;;;;;;5047419;28;20580;-76
2022/11/08 08:19:08;;;;;;;3.00;1.08;;;12.00;99.90;;;;;;5035667;28;20116;-77
2022/11/08 08:21:33;;;;;;;3.08;0.90;;;12.00;99.90;;;;;;5052627;28;20029;-75
2022/11/08 08:23:59;;;;;;;2.88;0.90;;;12.10;99.90;;;;;;5035250;28;20075;-75
2022/11/08 08:26:25;;;;;;;4.10;0.88;;;12.10;99.90;;;;;;5035259;28;20024;-75
2022/11/08 08:28:50;;;;;;;2.47;0.85;;;12.10;99.90;;;;;;5053120;28;20021;-75
2022/11/08 08:31:16;;;;;;;3.80;0.75;;;12.20;99.90;;;;;;5053266;28;20075;-76
2022/11/08 08:33:42;;;;;;;3.15;0.70;;;12.20;99.90;;;;;;5051284;28;20068;-75
2022/11/08 08:36:07;;;;;;;2.72;0.80;;;12.30;99.90;;;;;;5052417;28;20029;-75
2022/11/08 08:38:34;;;;;;;3.38;0.73;;;12.40;99.90;;;;;;5052958;28;20028;-75
2022/11/08 08:41:00;;;;;;;3.03;0.65;;;12.40;99.90;;;;;;5052120;28;20047;-75
2022/11/08 08:43:27;;;;;;;2.33;0.68;;;12.40;99.90;;;;;;5052798;28;20067;-75
2022/11/08 08:45:53;;;;;;;3.28;0.55;;;12.50;99.90;;;;;;5052048;28;20033;-75
2022/11/08 08:48:19;;;;;;;4.57;0.77;;;12.50;99.90;;;;;;5035920;28;20039;-75
2022/11/08 08:50:45;;;;;;;6.18;0.57;;;12.60;99.90;;;;;;5047563;28;20370;-75
2022/11/08 08:53:11;;;;;;;4.97;1.05;;;12.70;99.90;;;;;;5052984;28;20062;-76
2022/11/08 08:55:38;;;;;;;2.40;0.70;;;12.70;99.90;;;;;;5052636;28;20397;-75
2022/11/08 08:58:04;;;;;;;3.47;0.60;;;12.80;99.90;;;;;;5052606;28;20040;-75
2022/11/08 09:00:31;;;;;;;2.47;0.80;;;12.70;99.90;;;;;;5034614;28;20025;-76
2022/11/08 09:03:06;;;;;;;5.03;0.68;;;12.80;99.90;;;;;;5052425;28;20029;-76
2022/11/08 09:05:32;;;;;;;4.20;0.70;;;12.80;99.90;;;;;;5051855;28;20028;-76
2022/11/08 09:07:58;;;;;;;4.53;0.80;;;12.90;99.90;;;;;;5046874;28;20025;-76
2022/11/08 09:10:25;;;;;;;3.40;0.65;;;12.90;99.90;;;;;;5052524;28;20033;-76
2022/11/08 09:12:50;;;;;;;2.88;0.80;;;12.90;99.90;;;;;;5030734;28;20052;-76
2022/11/08 09:15:17;;;;;;;3.50;0.60;;;12.90;99.90;;;;;;5032430;28;20037;-76
2022/11/08 09:17:42;;;;;;;3.13;1.00;;;13.00;99.90;;;;;;5032306;28;20116;-76
2022/11/08 09:20:09;;;;;;;2.55;0.68;;;13.00;99.90;;;;;;5031040;28;20569;-76
2022/11/08 09:22:35;;;;;;;2.38;0.57;;;13.00;99.90;;;;;;5032266;28;20465;-76
2022/11/08 09:25:01;;;;;;;3.70;0.70;;;13.10;99.90;;;;;;5046345;28;20075;-76
2022/11/08 09:27:28;;;;;;;2.20;0.60;;;13.20;99.90;;;;;;5030551;28;20465;-76
2022/11/08 09:29:54;;;;;;;2.45;0.52;;;13.20;99.90;;;;;;5030309;28;20481;-76
2022/11/08 09:32:19;;;;;;;6.68;0.98;;;13.30;99.90;;;;;;5028279;28;20037;-76
2022/11/08 09:34:45;;;;;;;1.45;0.52;;;13.30;99.90;;;;;;5032095;28;20026;-76
2022/11/08 09:37:11;;;;;;;5.55;0.75;;;13.40;99.90;;;;;;5029605;28;20519;-76
2022/11/08 09:39:36;;;;;;;3.38;0.52;;;13.50;99.90;;;;;;5030558;28;20026;-76
2022/11/08 09:42:21;;;;;;;3.63;0.50;;;13.50;99.90;;;;;;5032454;28;20026;-76
2022/11/08 09:44:49;;;;;;;2.80;0.77;;;13.50;99.90;;;;;;5031543;28;20397;-76
2022/11/08 09:47:21;;;;;;;3.40;0.50;;;13.60;99.90;;;;;;5030287;28;20021;-76
2022/11/08 09:49:54;;;;;;;2.38;0.50;;;13.60;99.90;;;;;;5030952;28;20025;-76
2022/11/08 09:52:24;;;;;;;2.50;0.70;;;13.60;99.90;;;;;;5031416;28;20116;-76
2022/11/08 09:54:54;;;;;;;4.03;0.52;;;13.70;99.90;;;;;;5030520;28;20021;-76
2022/11/08 09:57:31;;;;;;;3.97;0.80;;;13.70;99.90;;;;;;5032553;28;20079;-76
2022/11/08 10:00:04;;;;;;;4.00;0.80;;;13.70;99.90;;;;;;5029438;28;20489;-76
2022/11/08 10:02:30;;;;;;;4.00;0.60;;;13.80;99.90;;;;;;5026013;28;20036;-76
2022/11/08 10:04:59;;;;;;;7.57;0.80;;;13.90;99.90;;;;;;5025278;28;20033;-76
2022/11/08 10:07:32;;;;;;;2.53;1.02;;;13.90;99.90;;;;;;5031849;28;20029;-76
2022/11/08 10:10:16;;;;;;;;;;;13.90;99.90;;;;;;5028791;28;20037;-75
2022/11/08 10:12:41;;;;;;;4.00;0.75;;;13.80;99.90;;;;;;5020542;28;19924;-76
2022/11/08 10:15:45;;;;;;;2.85;0.75;;;13.90;99.90;;;;;;5051075;28;20063;-76
2022/11/08 10:18:34;;;;;;;2.25;0.93;;;13.90;99.90;;;;;;5034652;28;20037;-76
2022/11/08 10:21:47;;;;;;;2.33;0.60;;;13.90;99.90;;;;;;5050602;28;20480;-76
2022/11/08 10:24:27;;;;;;;1.52;0.50;;;14.00;99.90;;;;;;5042528;28;20029;-76
2022/11/08 10:26:56;;;;;;;2.90;0.60;;;14.10;99.90;;;;;;5037802;28;20455;-76
2022/11/08 10:29:28;;;;;;;2.85;0.45;;;14.20;99.90;;;;;;5051249;28;20120;-77
2022/11/08 10:32:21;;;;;;;2.53;0.60;;;14.30;99.90;;;;;;5051082;28;20385;-76
2022/11/08 10:35:10;;;;;;;2.33;0.70;;;14.40;99.90;;;;;;5050919;28;20068;-76
2022/11/08 10:37:36;;;;;;;4.47;0.65;;;14.50;99.90;;;;;;5050102;28;20025;-76
2022/11/08 10:40:25;;;;;;;1.63;0.50;;;14.60;99.90;;;;;;5052191;28;20053;-76
2022/11/08 10:42:58;;;;;;;2.85;0.98;;;14.70;99.90;;;;;;5004953;28;20489;-76
2022/11/08 10:45:23;;;;;;;2.80;0.75;;;14.70;99.90;;;;;;5033430;28;20083;-76
2022/11/08 10:47:51;;;;;;;2.85;0.70;;;14.70;99.90;;;;;;5051046;28;20503;-76
2022/11/08 10:50:19;;;;;;;4.47;0.85;;;14.70;99.90;;;;;;5050836;28;20078;-76
2022/11/08 10:52:57;;;;;;;1.83;0.43;;;14.70;99.90;;;;;;5050991;28;20037;-76
2022/11/08 10:55:37;;;;;;;3.15;0.50;;;14.70;99.90;;;;;;5016466;28;20033;-75
2022/11/08 10:58:03;;;;;;;4.10;0.50;;;14.70;99.90;;;;;;5049759;28;20057;-76
2022/11/08 11:00:31;;;;;;;4.93;0.50;;;14.70;99.90;;;;;;5051111;28;20064;-75
2022/11/08 11:03:27;;;;;;;2.88;0.50;;;14.60;99.90;;;;;;5051327;28;20377;-76
2022/11/08 11:06:04;;;;;;;3.35;0.40;;;14.70;99.90;;;;;;5044584;28;20477;-75
2022/11/08 11:08:30;;;;;;;2.65;0.82;;;14.80;99.90;;;;;;5051616;28;20031;-76
2022/11/08 11:11:22;;;;;;;2.70;0.50;;;14.80;99.90;;;;;;5050528;28;20107;-75
2022/11/08 11:14:06;;;;;;;4.72;0.57;;;14.80;99.90;;;;;;5050391;28;20052;-75
2022/11/08 11:16:33;;;;;;;2.55;0.50;;;14.90;99.90;;;;;;5031841;28;20021;-76
2022/11/08 11:19:02;;;;;;;2.65;0.40;;;14.90;99.90;;;;;;5031207;28;20040;-77
2022/11/08 11:21:35;;;;;;;3.70;0.50;;;14.90;99.90;;;;;;5031800;28;20480;-77
2022/11/08 11:24:18;;;;;;;4.15;0.65;;;14.90;99.90;;;;;;5031990;28;20061;-77
2022/11/08 11:26:46;;;;;;;3.60;0.40;;;14.90;99.90;;;;;;5044216;28;20025;-76
2022/11/08 11:29:27;;;;;;;2.17;0.40;;;15.00;99.90;;;;;;5049120;28;20404;-77
2022/11/08 11:31:53;;;;;;;2.22;0.40;;;15.00;99.90;;;;;;5049514;28;20037;-77
2022/11/08 11:34:25;;;;;;;3.08;0.50;;;15.00;99.90;;;;;;5031305;28;20033;-77
2022/11/08 11:37:14;;;;;;;1.98;0.50;;;15.00;99.90;;;;;;5047158;28;20238;-77
2022/11/08 11:39:58;;;;;;;3.95;0.60;;;15.00;99.90;;;;;;5032403;28;20472;-77
2022/11/08 11:42:42;;;;;;;2.47;0.43;;;15.00;99.90;;;;;;5050098;28;20021;-74
2022/11/08 11:45:11;;;;;;;3.47;0.50;;;15.00;99.90;;;;;;5033138;28;20029;-75
2022/11/08 11:48:00;;;;;;;3.75;0.70;;;15.00;99.90;;;;;;5028916;28;20095;-75
2022/11/08 11:50:39;;;;;;;2.05;0.75;;;15.00;99.90;;;;;;5048676;28;20056;-76
2022/11/08 11:53:35;;;;;;;3.05;0.60;;;15.10;99.90;;;;;;5053758;28;20037;-75
2022/11/08 11:56:07;;;;;;;3.10;0.60;;;15.20;99.90;;;;;;5050664;28;20036;-76
2022/11/08 11:58:45;;;;;;;1.85;0.50;;;15.30;99.90;;;;;;5037029;28;20588;-76
2022/11/08 12:01:28;;;;;;;3.22;0.60;;;15.40;99.90;;;;;;5054186;28;20033;-76
2022/11/08 12:04:26;;;;;;;4.55;0.70;;;15.40;99.90;;;;;;5053589;28;20017;-76
2022/11/08 12:07:01;;;;;;;3.80;0.60;;;15.50;99.90;;;;;;5035361;28;20017;-76
2022/11/08 12:10:04;;;;;;;3.95;0.70;;;15.70;99.90;;;;;;5052879;28;20039;-76
2022/11/08 12:13:08;;;;;;;2.75;0.70;;;15.80;99.90;;;;;;5036471;28;20056;-77
2022/11/08 12:15:49;;;;;;;2.10;0.50;;;15.80;99.90;;;;;;5048348;28;20049;-76
2022/11/08 12:18:23;;;;;;;2.25;0.50;;;15.90;99.90;;;;;;5036660;28;20116;-76
2022/11/08 12:21:21;;;;;;;2.53;0.60;;;15.80;99.90;;;;;;5034520;28;20033;-76
2022/11/08 12:23:52;;;;;;;2.22;0.50;;;15.90;99.90;;;;;;5053528;28;20539;-76
2022/11/08 12:26:39;;;;;;;3.80;0.50;;;15.90;99.90;;;;;;5032524;28;20037;-76
2022/11/08 12:29:28;;;;;;;1.55;0.40;;;15.80;99.90;;;;;;5050163;28;20021;-76
2022/11/08 12:32:03;;;;;;;5.57;0.50;;;15.80;99.90;;;;;;5052891;28;20128;-76
2022/11/08 12:34:51;;;;;;;2.58;0.40;;;15.80;99.90;;;;;;5035070;28;20084;-76
2022/11/08 12:37:47;;;;;;;3.83;0.60;;;15.80;99.90;;;;;;5036263;28;20403;-75
2022/11/08 12:41:11;;;;;;;2.58;0.60;;;15.80;99.90;;;;;;5052956;28;20036;-76
2022/11/08 12:43:59;;;;;;;4.45;0.40;;;15.70;99.90;;;;;;5035410;28;20048;-76
2022/11/08 12:46:32;;;;;;;2.40;0.50;;;15.70;99.90;;;;;;5051199;28;20456;-75
2022/11/08 12:49:39;;;;;;;2.20;0.60;;;15.60;99.90;;;;;;5052132;28;20033;-75
2022/11/08 12:52:19;;;;;;;2.70;0.50;;;15.60;99.90;;;;;;4951268;28;20043;-76
2022/11/08 12:55:01;;;;;;;2.50;0.50;;;15.50;99.90;;;;;;5032354;28;20067;-76
2022/11/08 12:57:27;;;;;;;2.43;0.47;;;15.50;99.90;;;;;;5045008;28;20029;-76
2022/11/08 13:00:14;;;;;;;5.03;0.50;;;15.40;99.90;;;;;;5044458;28;20029;-75
2022/11/08 13:02:42;;;;;;;4.10;0.40;;;15.50;99.90;;;;;;5039200;28;20025;-76
2022/11/08 13:05:29;;;;;;;2.97;0.50;;;15.50;99.90;;;;;;5031969;28;20511;-76
2022/11/08 13:08:16;;;;;;;5.18;0.50;;;15.50;99.90;;;;;;5034256;28;20075;-75
2022/11/08 13:11:03;;;;;;;2.30;0.82;;;15.50;99.90;;;;;;5052292;28;20033;-76
2022/11/08 13:13:47;;;;;;;3.45;0.50;;;15.60;99.90;;;;;;5040310;28;20564;-76
2022/11/08 13:16:41;;;;;;;2.03;0.50;;;15.70;99.90;;;;;;5028297;28;20398;-76
2022/11/08 13:19:27;;;;;;;5.78;0.95;;;15.70;99.90;;;;;;5042057;28;20536;-76
2022/11/08 13:21:53;;;;;;;2.88;0.40;;;15.80;99.90;;;;;;5051844;28;20033;-77
2022/11/08 13:24:19;;;;;;;1.73;0.50;;;15.90;99.90;;;;;;5049960;28;20032;-76